Αρχική σελίδα
METAR-TAF:

METAR-TAF

Αεροδρόμια :

Αεροδρόμιο Ταν Σον Νιάτ

Χο Τσι Μινχ, Βιετνάμ

γεωγραφικό πλάτος: 10-49N, γεωγραφικό μήκος: 106-40E, υψόμετρο: 19 μ

Παρών καιρός

Η αναφορά έγινε 25 λεπτά πριν, στις 06:00 UTC
Άνεμος 8 kt από Ν με ριπές μέχρι 20 kt, μεταβλητός μεταξύ ΝA και ΝΔ
Θερμοκρασία 35°C
Υγρασία 53%
Πίεση 1009 hPa
Ορατότητα 10 χλμ και άνω
Διάσπαρτα νέφη σε ύψος 2000 πόδια

METAR: VVTS 130600Z 18008G20KT 130V220 9999 SCT020 35/24 Q1009 NOSIG

Χρόνος: 13:25 (06:25 UTC)

Πρόγνωση Καιρού

Η αναφορά έγινε 1 ώρα και 25 λεπτά πριν, στις 05:00 UTC
Η πρόγνωση ισχύει από τις 13 στις 06 UTC έως τις 14 στις 12 UTC
Άνεμος 10 kt από Ν
Ορατότητα 10 χλμ και άνω
Διάσπαρτα νέφη σε ύψος 1700 πόδια

TAF: VVTS 130500Z 1306/1412 17010KT 9999 SCT017

Μετεωρολογικές αναφορές και προγνώσεις για περισσότερα από 4000 αεροδρόμια (δελτία METAR και TAF).

Οι διαθέσιμοι σταθμοί απεικονίζονται στο χάρτη με κίτρινες και κόκκινες κουκκίδες.

Μετακινήστε το ποντίκι πάνω από τις κουκκίδες για να δείτε το όνομα του σταθμού.

Στη συνέχεια, κάντε κλικ για να δείτε τις μετεωρολογικές αναφορές και τις προγνώσεις καιρού.

Για να αλλάξετε το χάρτη: κάντε κλικ στα πράσινα κουμπιά με τον μαύρο σταυρό για να ζουμάρετε, στο πράσινο κουμπί με την παύλα για να αφαιρέσετε το ζουμ ή στα πράσινα βέλη για να αντιπαραβάλλετε χάρτες.


METAR-TAF: